sensor_id;sensor_type;location;lat;lon;timestamp;P1;durP1;ratioP1;P2;durP2;ratioP2
76826;SDS011;65788;52.284;20.890;2022-12-18T00:02:21;12.10;;;8.80;;
76826;SDS011;65788;52.284;20.890;2022-12-18T00:04:51;11.40;;;8.40;;
76826;SDS011;65788;52.284;20.890;2022-12-18T00:07:23;12.60;;;8.20;;
76826;SDS011;65788;52.284;20.890;2022-12-18T00:09:52;10.50;;;8.20;;
76826;SDS011;65788;52.284;20.890;2022-12-18T00:12:22;10.90;;;8.40;;
76826;SDS011;65788;52.284;20.890;2022-12-18T00:14:51;11.80;;;8.60;;
76826;SDS011;65788;52.284;20.890;2022-12-18T00:17:20;10.20;;;7.90;;
76826;SDS011;65788;52.284;20.890;2022-12-18T00:19:50;11.10;;;8.00;;
76826;SDS011;65788;52.284;20.890;2022-12-18T00:22:19;11.40;;;8.40;;
76826;SDS011;65788;52.284;20.890;2022-12-18T00:24:51;11.60;;;8.80;;
76826;SDS011;65788;52.284;20.890;2022-12-18T00:27:20;12.10;;;8.50;;
76826;SDS011;65788;52.284;20.890;2022-12-18T00:29:50;11.20;;;8.70;;
76826;SDS011;65788;52.284;20.890;2022-12-18T00:32:19;11.30;;;8.60;;
76826;SDS011;65788;52.284;20.890;2022-12-18T00:34:48;12.10;;;8.80;;
76826;SDS011;65788;52.284;20.890;2022-12-18T00:37:18;11.60;;;8.60;;
76826;SDS011;65788;52.284;20.890;2022-12-18T00:39:48;10.90;;;8.40;;
76826;SDS011;65788;52.284;20.890;2022-12-18T00:42:18;12.70;;;8.90;;
76826;SDS011;65788;52.284;20.890;2022-12-18T00:45:06;11.80;;;8.70;;
76826;SDS011;65788;52.284;20.890;2022-12-18T00:47:36;11.60;;;8.60;;
76826;SDS011;65788;52.284;20.890;2022-12-18T00:50:08;11.90;;;8.40;;
76826;SDS011;65788;52.284;20.890;2022-12-18T00:52:40;12.30;;;8.90;;
76826;SDS011;65788;52.284;20.890;2022-12-18T00:55:09;11.80;;;8.40;;
76826;SDS011;65788;52.284;20.890;2022-12-18T00:57:42;11.50;;;8.60;;
76826;SDS011;65788;52.284;20.890;2022-12-18T01:00:13;12.00;;;9.00;;
76826;SDS011;65788;52.284;20.890;2022-12-18T01:02:43;11.20;;;8.40;;
76826;SDS011;65788;52.284;20.890;2022-12-18T01:05:13;11.30;;;8.60;;
76826;SDS011;65788;52.284;20.890;2022-12-18T01:07:43;12.70;;;9.10;;
76826;SDS011;65788;52.284;20.890;2022-12-18T01:10:14;10.20;;;8.10;;
76826;SDS011;65788;52.284;20.890;2022-12-18T01:12:44;12.20;;;8.70;;
76826;SDS011;65788;52.284;20.890;2022-12-18T01:15:14;12.00;;;8.60;;
76826;SDS011;65788;52.284;20.890;2022-12-18T01:17:45;10.50;;;8.40;;
76826;SDS011;65788;52.284;20.890;2022-12-18T01:20:15;11.20;;;8.40;;
76826;SDS011;65788;52.284;20.890;2022-12-18T01:22:44;12.20;;;9.40;;
76826;SDS011;65788;52.284;20.890;2022-12-18T01:25:14;12.40;;;9.00;;
76826;SDS011;65788;52.284;20.890;2022-12-18T01:27:43;12.60;;;8.50;;
76826;SDS011;65788;52.284;20.890;2022-12-18T01:30:12;12.30;;;8.90;;
76826;SDS011;65788;52.284;20.890;2022-12-18T01:32:42;10.90;;;8.10;;
76826;SDS011;65788;52.284;20.890;2022-12-18T01:35:11;11.30;;;8.20;;
76826;SDS011;65788;52.284;20.890;2022-12-18T01:37:41;11.60;;;8.50;;
76826;SDS011;65788;52.284;20.890;2022-12-18T01:40:10;11.50;;;8.40;;
76826;SDS011;65788;52.284;20.890;2022-12-18T01:42:40;11.80;;;8.60;;
76826;SDS011;65788;52.284;20.890;2022-12-18T01:50:32;10.70;;;8.30;;
76826;SDS011;65788;52.284;20.890;2022-12-18T01:53:15;11.20;;;7.90;;
76826;SDS011;65788;52.284;20.890;2022-12-18T01:55:48;11.60;;;8.10;;
76826;SDS011;65788;52.284;20.890;2022-12-18T01:58:24;11.70;;;8.60;;
76826;SDS011;65788;52.284;20.890;2022-12-18T02:01:02;10.70;;;7.90;;
76826;SDS011;65788;52.284;20.890;2022-12-18T02:03:32;12.50;;;9.20;;
76826;SDS011;65788;52.284;20.890;2022-12-18T02:06:07;12.20;;;8.40;;
76826;SDS011;65788;52.284;20.890;2022-12-18T02:11:43;11.70;;;8.30;;
76826;SDS011;65788;52.284;20.890;2022-12-18T02:14:35;11.90;;;8.30;;
76826;SDS011;65788;52.284;20.890;2022-12-18T02:17:16;11.20;;;8.60;;
76826;SDS011;65788;52.284;20.890;2022-12-18T02:20:12;13.20;;;8.90;;
76826;SDS011;65788;52.284;20.890;2022-12-18T02:23:07;12.10;;;8.70;;
76826;SDS011;65788;52.284;20.890;2022-12-18T02:28:47;12.00;;;8.50;;
76826;SDS011;65788;52.284;20.890;2022-12-18T02:31:24;11.90;;;8.70;;
76826;SDS011;65788;52.284;20.890;2022-12-18T02:33:58;11.80;;;8.60;;
76826;SDS011;65788;52.284;20.890;2022-12-18T02:36:31;12.40;;;9.40;;
76826;SDS011;65788;52.284;20.890;2022-12-18T02:39:02;11.40;;;8.40;;
76826;SDS011;65788;52.284;20.890;2022-12-18T02:41:34;11.70;;;8.40;;
76826;SDS011;65788;52.284;20.890;2022-12-18T02:44:09;12.30;;;8.60;;
76826;SDS011;65788;52.284;20.890;2022-12-18T02:55:13;11.80;;;8.60;;
76826;SDS011;65788;52.284;20.890;2022-12-18T03:00:43;11.50;;;8.50;;
76826;SDS011;65788;52.284;20.890;2022-12-18T03:03:22;11.80;;;8.40;;
76826;SDS011;65788;52.284;20.890;2022-12-18T03:06:04;12.30;;;8.60;;
76826;SDS011;65788;52.284;20.890;2022-12-18T03:08:41;12.50;;;8.80;;
76826;SDS011;65788;52.284;20.890;2022-12-18T03:11:14;12.70;;;8.80;;
76826;SDS011;65788;52.284;20.890;2022-12-18T03:13:45;11.90;;;8.70;;
76826;SDS011;65788;52.284;20.890;2022-12-18T03:16:24;12.50;;;9.00;;
76826;SDS011;65788;52.284;20.890;2022-12-18T03:18:59;12.10;;;8.20;;
76826;SDS011;65788;52.284;20.890;2022-12-18T03:21:33;13.00;;;8.70;;
76826;SDS011;65788;52.284;20.890;2022-12-18T03:24:09;12.60;;;8.50;;
76826;SDS011;65788;52.284;20.890;2022-12-18T03:26:41;12.80;;;8.50;;
76826;SDS011;65788;52.284;20.890;2022-12-18T03:29:16;12.20;;;8.50;;
76826;SDS011;65788;52.284;20.890;2022-12-18T03:31:54;11.10;;;8.20;;
76826;SDS011;65788;52.284;20.890;2022-12-18T03:34:32;12.90;;;8.50;;
76826;SDS011;65788;52.284;20.890;2022-12-18T03:37:05;11.80;;;8.20;;
76826;SDS011;65788;52.284;20.890;2022-12-18T03:39:36;12.60;;;8.90;;
76826;SDS011;65788;52.284;20.890;2022-12-18T03:42:11;12.30;;;8.00;;
76826;SDS011;65788;52.284;20.890;2022-12-18T03:44:54;12.60;;;9.00;;
76826;SDS011;65788;52.284;20.890;2022-12-18T03:47:40;12.00;;;8.80;;
76826;SDS011;65788;52.284;20.890;2022-12-18T03:50:43;10.90;;;8.30;;
76826;SDS011;65788;52.284;20.890;2022-12-18T03:53:29;12.00;;;8.20;;
76826;SDS011;65788;52.284;20.890;2022-12-18T03:56:00;11.70;;;8.20;;
76826;SDS011;65788;52.284;20.890;2022-12-18T03:58:32;12.10;;;8.70;;
76826;SDS011;65788;52.284;20.890;2022-12-18T04:01:05;12.70;;;8.80;;
76826;SDS011;65788;52.284;20.890;2022-12-18T04:03:37;11.90;;;9.00;;
76826;SDS011;65788;52.284;20.890;2022-12-18T04:06:12;11.20;;;8.60;;
76826;SDS011;65788;52.284;20.890;2022-12-18T04:08:43;11.20;;;8.10;;
76826;SDS011;65788;52.284;20.890;2022-12-18T04:11:15;11.20;;;8.10;;
76826;SDS011;65788;52.284;20.890;2022-12-18T04:13:46;11.10;;;8.30;;
76826;SDS011;65788;52.284;20.890;2022-12-18T04:16:16;11.10;;;7.80;;
76826;SDS011;65788;52.284;20.890;2022-12-18T04:18:45;12.80;;;8.90;;
76826;SDS011;65788;52.284;20.890;2022-12-18T04:21:15;12.10;;;8.40;;
76826;SDS011;65788;52.284;20.890;2022-12-18T04:23:44;12.70;;;8.90;;
76826;SDS011;65788;52.284;20.890;2022-12-18T04:26:14;12.20;;;8.60;;
76826;SDS011;65788;52.284;20.890;2022-12-18T04:28:44;11.70;;;8.40;;
76826;SDS011;65788;52.284;20.890;2022-12-18T04:31:14;12.10;;;8.50;;
76826;SDS011;65788;52.284;20.890;2022-12-18T04:33:43;12.40;;;8.90;;
76826;SDS011;65788;52.284;20.890;2022-12-18T04:36:12;11.70;;;8.80;;
76826;SDS011;65788;52.284;20.890;2022-12-18T04:38:43;11.60;;;8.50;;
76826;SDS011;65788;52.284;20.890;2022-12-18T04:41:13;11.30;;;8.50;;
76826;SDS011;65788;52.284;20.890;2022-12-18T04:43:42;12.10;;;8.50;;
76826;SDS011;65788;52.284;20.890;2022-12-18T04:46:12;11.00;;;8.20;;
76826;SDS011;65788;52.284;20.890;2022-12-18T04:48:44;11.20;;;8.30;;
76826;SDS011;65788;52.284;20.890;2022-12-18T04:51:14;11.80;;;8.30;;
76826;SDS011;65788;52.284;20.890;2022-12-18T04:53:44;11.30;;;8.30;;
76826;SDS011;65788;52.284;20.890;2022-12-18T04:56:14;10.70;;;7.80;;
76826;SDS011;65788;52.284;20.890;2022-12-18T04:58:44;10.80;;;7.70;;
76826;SDS011;65788;52.284;20.890;2022-12-18T05:01:14;11.30;;;8.00;;
76826;SDS011;65788;52.284;20.890;2022-12-18T05:03:46;11.60;;;8.30;;
76826;SDS011;65788;52.284;20.890;2022-12-18T05:06:15;11.00;;;8.30;;
76826;SDS011;65788;52.284;20.890;2022-12-18T05:08:44;10.50;;;8.00;;
76826;SDS011;65788;52.284;20.890;2022-12-18T05:11:14;12.10;;;8.60;;
76826;SDS011;65788;52.284;20.890;2022-12-18T05:13:45;13.70;;;8.70;;
76826;SDS011;65788;52.284;20.890;2022-12-18T05:16:14;13.40;;;8.60;;
76826;SDS011;65788;52.284;20.890;2022-12-18T05:18:44;12.50;;;8.40;;
76826;SDS011;65788;52.284;20.890;2022-12-18T05:21:13;12.90;;;9.00;;
76826;SDS011;65788;52.284;20.890;2022-12-18T05:23:43;11.70;;;7.90;;
76826;SDS011;65788;52.284;20.890;2022-12-18T05:26:14;12.60;;;7.80;;
76826;SDS011;65788;52.284;20.890;2022-12-18T05:28:46;12.20;;;8.50;;
76826;SDS011;65788;52.284;20.890;2022-12-18T05:31:15;13.80;;;8.70;;
76826;SDS011;65788;52.284;20.890;2022-12-18T05:33:45;12.40;;;8.70;;
76826;SDS011;65788;52.284;20.890;2022-12-18T05:36:14;12.20;;;8.90;;
76826;SDS011;65788;52.284;20.890;2022-12-18T05:38:44;12.70;;;9.10;;
76826;SDS011;65788;52.284;20.890;2022-12-18T05:41:13;13.70;;;8.70;;
76826;SDS011;65788;52.284;20.890;2022-12-18T05:43:43;13.50;;;8.90;;
76826;SDS011;65788;52.284;20.890;2022-12-18T05:46:14;14.40;;;8.80;;
76826;SDS011;65788;52.284;20.890;2022-12-18T05:48:45;14.50;;;8.90;;
76826;SDS011;65788;52.284;20.890;2022-12-18T05:51:15;15.60;;;9.40;;
76826;SDS011;65788;52.284;20.890;2022-12-18T05:53:46;14.10;;;8.70;;
76826;SDS011;65788;52.284;20.890;2022-12-18T05:56:17;13.20;;;9.40;;
76826;SDS011;65788;52.284;20.890;2022-12-18T05:58:50;13.40;;;8.90;;
76826;SDS011;65788;52.284;20.890;2022-12-18T06:01:24;13.30;;;9.20;;
76826;SDS011;65788;52.284;20.890;2022-12-18T06:03:55;13.30;;;9.20;;
76826;SDS011;65788;52.284;20.890;2022-12-18T06:06:26;14.20;;;8.90;;
76826;SDS011;65788;52.284;20.890;2022-12-18T06:08:56;14.50;;;9.30;;
76826;SDS011;65788;52.284;20.890;2022-12-18T06:11:27;12.90;;;9.40;;
76826;SDS011;65788;52.284;20.890;2022-12-18T06:13:57;13.20;;;9.60;;
76826;SDS011;65788;52.284;20.890;2022-12-18T06:16:29;13.60;;;9.30;;
76826;SDS011;65788;52.284;20.890;2022-12-18T06:19:00;14.10;;;9.30;;
76826;SDS011;65788;52.284;20.890;2022-12-18T06:21:32;14.80;;;9.80;;
76826;SDS011;65788;52.284;20.890;2022-12-18T06:24:03;13.20;;;9.20;;
76826;SDS011;65788;52.284;20.890;2022-12-18T06:26:33;13.60;;;9.10;;
76826;SDS011;65788;52.284;20.890;2022-12-18T06:29:03;13.40;;;9.60;;
76826;SDS011;65788;52.284;20.890;2022-12-18T06:31:32;13.30;;;9.90;;
76826;SDS011;65788;52.284;20.890;2022-12-18T06:34:02;13.30;;;9.80;;
76826;SDS011;65788;52.284;20.890;2022-12-18T06:36:32;14.10;;;9.60;;
76826;SDS011;65788;52.284;20.890;2022-12-18T06:39:02;14.40;;;9.80;;
76826;SDS011;65788;52.284;20.890;2022-12-18T06:41:32;14.20;;;9.50;;
76826;SDS011;65788;52.284;20.890;2022-12-18T06:44:01;14.50;;;10.10;;
76826;SDS011;65788;52.284;20.890;2022-12-18T06:46:30;13.50;;;9.50;;
76826;SDS011;65788;52.284;20.890;2022-12-18T06:49:01;15.10;;;9.30;;
76826;SDS011;65788;52.284;20.890;2022-12-18T06:51:30;15.30;;;9.50;;
76826;SDS011;65788;52.284;20.890;2022-12-18T06:54:00;13.60;;;9.70;;
76826;SDS011;65788;52.284;20.890;2022-12-18T06:56:30;12.60;;;8.90;;
76826;SDS011;65788;52.284;20.890;2022-12-18T06:58:59;13.90;;;9.60;;
76826;SDS011;65788;52.284;20.890;2022-12-18T07:01:30;13.90;;;9.60;;
76826;SDS011;65788;52.284;20.890;2022-12-18T07:03:59;12.90;;;9.30;;
76826;SDS011;65788;52.284;20.890;2022-12-18T07:06:28;14.80;;;10.10;;
76826;SDS011;65788;52.284;20.890;2022-12-18T07:08:57;13.50;;;9.70;;
76826;SDS011;65788;52.284;20.890;2022-12-18T07:11:27;13.50;;;9.50;;
76826;SDS011;65788;52.284;20.890;2022-12-18T07:13:56;13.80;;;9.50;;
76826;SDS011;65788;52.284;20.890;2022-12-18T07:16:26;14.10;;;10.30;;
76826;SDS011;65788;52.284;20.890;2022-12-18T07:18:57;13.80;;;10.00;;
76826;SDS011;65788;52.284;20.890;2022-12-18T07:21:26;12.80;;;9.60;;
76826;SDS011;65788;52.284;20.890;2022-12-18T07:23:55;13.80;;;9.60;;
76826;SDS011;65788;52.284;20.890;2022-12-18T07:26:25;14.50;;;9.50;;
76826;SDS011;65788;52.284;20.890;2022-12-18T07:28:55;15.80;;;10.50;;
76826;SDS011;65788;52.284;20.890;2022-12-18T07:31:26;14.00;;;10.00;;
76826;SDS011;65788;52.284;20.890;2022-12-18T07:33:56;12.80;;;9.70;;
76826;SDS011;65788;52.284;20.890;2022-12-18T07:36:25;14.60;;;9.90;;
76826;SDS011;65788;52.284;20.890;2022-12-18T07:38:55;14.60;;;9.80;;
76826;SDS011;65788;52.284;20.890;2022-12-18T07:41:25;14.90;;;10.60;;
76826;SDS011;65788;52.284;20.890;2022-12-18T07:43:54;15.10;;;10.20;;
76826;SDS011;65788;52.284;20.890;2022-12-18T07:46:23;14.10;;;10.00;;
76826;SDS011;65788;52.284;20.890;2022-12-18T07:48:53;14.90;;;9.80;;
76826;SDS011;65788;52.284;20.890;2022-12-18T07:51:22;13.80;;;10.10;;
76826;SDS011;65788;52.284;20.890;2022-12-18T07:53:51;13.90;;;10.00;;
76826;SDS011;65788;52.284;20.890;2022-12-18T07:56:21;16.20;;;10.30;;
76826;SDS011;65788;52.284;20.890;2022-12-18T07:58:50;15.90;;;11.00;;
76826;SDS011;65788;52.284;20.890;2022-12-18T08:01:20;14.70;;;10.50;;
76826;SDS011;65788;52.284;20.890;2022-12-18T08:03:49;14.00;;;10.30;;
76826;SDS011;65788;52.284;20.890;2022-12-18T08:06:19;14.60;;;9.90;;
76826;SDS011;65788;52.284;20.890;2022-12-18T08:08:48;14.70;;;10.40;;
76826;SDS011;65788;52.284;20.890;2022-12-18T08:11:17;15.20;;;10.60;;
76826;SDS011;65788;52.284;20.890;2022-12-18T08:13:47;15.70;;;10.80;;
76826;SDS011;65788;52.284;20.890;2022-12-18T08:16:16;13.30;;;9.90;;
76826;SDS011;65788;52.284;20.890;2022-12-18T08:18:46;14.40;;;10.40;;
76826;SDS011;65788;52.284;20.890;2022-12-18T08:21:17;14.20;;;10.20;;
76826;SDS011;65788;52.284;20.890;2022-12-18T08:23:50;15.90;;;10.80;;
76826;SDS011;65788;52.284;20.890;2022-12-18T08:26:20;14.60;;;10.30;;
76826;SDS011;65788;52.284;20.890;2022-12-18T08:28:50;14.80;;;11.00;;
76826;SDS011;65788;52.284;20.890;2022-12-18T08:31:22;13.90;;;10.40;;
76826;SDS011;65788;52.284;20.890;2022-12-18T08:33:53;14.30;;;10.00;;
76826;SDS011;65788;52.284;20.890;2022-12-18T08:36:23;14.40;;;10.20;;
76826;SDS011;65788;52.284;20.890;2022-12-18T08:38:53;15.70;;;10.80;;
76826;SDS011;65788;52.284;20.890;2022-12-18T08:41:23;17.80;;;10.70;;
76826;SDS011;65788;52.284;20.890;2022-12-18T08:43:52;15.40;;;11.20;;
76826;SDS011;65788;52.284;20.890;2022-12-18T08:46:41;14.60;;;10.60;;
76826;SDS011;65788;52.284;20.890;2022-12-18T08:49:12;15.50;;;11.10;;
76826;SDS011;65788;52.284;20.890;2022-12-18T08:51:42;14.80;;;10.40;;
76826;SDS011;65788;52.284;20.890;2022-12-18T08:54:12;15.40;;;10.40;;
76826;SDS011;65788;52.284;20.890;2022-12-18T08:56:43;15.50;;;10.50;;
76826;SDS011;65788;52.284;20.890;2022-12-18T08:59:12;15.20;;;10.60;;
76826;SDS011;65788;52.284;20.890;2022-12-18T09:01:42;13.90;;;10.30;;
76826;SDS011;65788;52.284;20.890;2022-12-18T09:04:12;14.10;;;9.90;;
76826;SDS011;65788;52.284;20.890;2022-12-18T09:06:42;15.00;;;10.90;;
76826;SDS011;65788;52.284;20.890;2022-12-18T09:09:12;16.10;;;11.00;;
76826;SDS011;65788;52.284;20.890;2022-12-18T09:11:41;15.90;;;10.40;;
76826;SDS011;65788;52.284;20.890;2022-12-18T09:14:11;14.90;;;10.60;;
76826;SDS011;65788;52.284;20.890;2022-12-18T09:16:40;13.80;;;10.30;;
76826;SDS011;65788;52.284;20.890;2022-12-18T09:19:10;16.00;;;10.40;;
76826;SDS011;65788;52.284;20.890;2022-12-18T09:21:40;14.70;;;10.20;;
76826;SDS011;65788;52.284;20.890;2022-12-18T09:24:11;16.00;;;11.20;;
76826;SDS011;65788;52.284;20.890;2022-12-18T09:26:42;14.50;;;10.40;;
76826;SDS011;65788;52.284;20.890;2022-12-18T09:29:12;14.60;;;10.80;;
76826;SDS011;65788;52.284;20.890;2022-12-18T09:31:41;14.10;;;10.20;;
76826;SDS011;65788;52.284;20.890;2022-12-18T09:34:11;14.90;;;10.40;;
76826;SDS011;65788;52.284;20.890;2022-12-18T09:36:40;14.30;;;10.70;;
76826;SDS011;65788;52.284;20.890;2022-12-18T09:39:09;14.80;;;10.30;;
76826;SDS011;65788;52.284;20.890;2022-12-18T09:41:41;15.10;;;10.70;;
76826;SDS011;65788;52.284;20.890;2022-12-18T09:49:32;13.60;;;10.00;;
76826;SDS011;65788;52.284;20.890;2022-12-18T09:52:17;15.40;;;11.00;;
76826;SDS011;65788;52.284;20.890;2022-12-18T09:55:03;15.60;;;11.00;;
76826;SDS011;65788;52.284;20.890;2022-12-18T09:57:35;17.00;;;12.60;;
76826;SDS011;65788;52.284;20.890;2022-12-18T10:00:15;20.70;;;14.30;;
76826;SDS011;65788;52.284;20.890;2022-12-18T10:02:48;20.30;;;14.60;;
76826;SDS011;65788;52.284;20.890;2022-12-18T10:05:21;20.70;;;15.70;;
76826;SDS011;65788;52.284;20.890;2022-12-18T10:07:59;20.20;;;15.60;;
76826;SDS011;65788;52.284;20.890;2022-12-18T10:13:12;25.80;;;18.10;;
76826;SDS011;65788;52.284;20.890;2022-12-18T10:15:58;23.80;;;18.10;;
76826;SDS011;65788;52.284;20.890;2022-12-18T10:18:39;25.10;;;18.40;;
76826;SDS011;65788;52.284;20.890;2022-12-18T10:21:28;24.40;;;17.80;;
76826;SDS011;65788;52.284;20.890;2022-12-18T10:26:42;23.90;;;16.80;;
76826;SDS011;65788;52.284;20.890;2022-12-18T10:29:14;25.90;;;17.70;;
76826;SDS011;65788;52.284;20.890;2022-12-18T10:31:45;22.40;;;16.80;;
76826;SDS011;65788;52.284;20.890;2022-12-18T10:34:15;23.20;;;16.70;;
76826;SDS011;65788;52.284;20.890;2022-12-18T10:36:44;23.20;;;16.90;;
76826;SDS011;65788;52.284;20.890;2022-12-18T10:39:24;22.80;;;16.60;;
76826;SDS011;65788;52.284;20.890;2022-12-18T10:42:09;22.10;;;16.70;;
76826;SDS011;65788;52.284;20.890;2022-12-18T10:44:42;21.60;;;16.50;;
76826;SDS011;65788;52.284;20.890;2022-12-18T10:47:15;21.60;;;16.30;;
76826;SDS011;65788;52.284;20.890;2022-12-18T10:49:49;24.30;;;16.70;;
76826;SDS011;65788;52.284;20.890;2022-12-18T10:52:22;22.20;;;16.10;;
76826;SDS011;65788;52.284;20.890;2022-12-18T10:54:55;23.30;;;16.30;;
76826;SDS011;65788;52.284;20.890;2022-12-18T10:57:34;21.20;;;15.70;;
76826;SDS011;65788;52.284;20.890;2022-12-18T11:00:26;23.10;;;16.90;;
76826;SDS011;65788;52.284;20.890;2022-12-18T11:02:58;22.70;;;16.50;;
76826;SDS011;65788;52.284;20.890;2022-12-18T11:05:34;23.80;;;17.10;;
76826;SDS011;65788;52.284;20.890;2022-12-18T11:08:07;22.60;;;16.40;;
76826;SDS011;65788;52.284;20.890;2022-12-18T11:10:50;21.40;;;15.90;;
76826;SDS011;65788;52.284;20.890;2022-12-18T11:13:21;20.60;;;15.60;;
76826;SDS011;65788;52.284;20.890;2022-12-18T11:15:52;21.70;;;15.90;;
76826;SDS011;65788;52.284;20.890;2022-12-18T11:18:34;22.40;;;15.80;;
76826;SDS011;65788;52.284;20.890;2022-12-18T11:21:06;21.50;;;15.10;;
76826;SDS011;65788;52.284;20.890;2022-12-18T11:23:43;22.40;;;15.20;;
76826;SDS011;65788;52.284;20.890;2022-12-18T11:26:20;21.60;;;16.00;;
76826;SDS011;65788;52.284;20.890;2022-12-18T11:29:09;21.70;;;15.90;;
76826;SDS011;65788;52.284;20.890;2022-12-18T11:31:44;22.70;;;15.90;;
76826;SDS011;65788;52.284;20.890;2022-12-18T11:34:16;22.10;;;16.40;;
76826;SDS011;65788;52.284;20.890;2022-12-18T11:36:55;22.00;;;15.90;;
76826;SDS011;65788;52.284;20.890;2022-12-18T11:39:31;23.10;;;15.40;;
76826;SDS011;65788;52.284;20.890;2022-12-18T11:42:28;22.70;;;16.10;;
76826;SDS011;65788;52.284;20.890;2022-12-18T11:50:39;23.20;;;15.30;;
76826;SDS011;65788;52.284;20.890;2022-12-18T11:53:12;21.70;;;15.50;;
76826;SDS011;65788;52.284;20.890;2022-12-18T11:55:45;23.20;;;15.70;;
76826;SDS011;65788;52.284;20.890;2022-12-18T12:01:16;24.10;;;16.10;;
76826;SDS011;65788;52.284;20.890;2022-12-18T12:06:39;24.80;;;16.80;;
76826;SDS011;65788;52.284;20.890;2022-12-18T12:09:27;25.30;;;17.10;;
76826;SDS011;65788;52.284;20.890;2022-12-18T12:18:27;22.80;;;16.30;;
76826;SDS011;65788;52.284;20.890;2022-12-18T12:21:10;22.70;;;16.50;;
76826;SDS011;65788;52.284;20.890;2022-12-18T12:26:33;24.70;;;17.30;;
76826;SDS011;65788;52.284;20.890;2022-12-18T12:29:18;24.30;;;17.60;;
76826;SDS011;65788;52.284;20.890;2022-12-18T12:40:54;26.50;;;17.30;;
76826;SDS011;65788;52.284;20.890;2022-12-18T12:43:32;25.00;;;17.60;;
76826;SDS011;65788;52.284;20.890;2022-12-18T12:51:26;23.60;;;16.60;;
76826;SDS011;65788;52.284;20.890;2022-12-18T12:56:57;30.00;;;17.90;;
76826;SDS011;65788;52.284;20.890;2022-12-18T13:05:40;23.40;;;16.80;;
76826;SDS011;65788;52.284;20.890;2022-12-18T13:08:29;24.00;;;16.40;;
76826;SDS011;65788;52.284;20.890;2022-12-18T13:11:01;23.90;;;16.40;;
76826;SDS011;65788;52.284;20.890;2022-12-18T13:13:54;24.50;;;17.10;;
76826;SDS011;65788;52.284;20.890;2022-12-18T13:16:25;27.20;;;18.30;;
76826;SDS011;65788;52.284;20.890;2022-12-18T13:18:56;25.60;;;17.00;;
76826;SDS011;65788;52.284;20.890;2022-12-18T13:21:28;25.20;;;17.00;;
76826;SDS011;65788;52.284;20.890;2022-12-18T13:24:19;24.80;;;16.90;;
76826;SDS011;65788;52.284;20.890;2022-12-18T13:29:41;23.40;;;16.90;;
76826;SDS011;65788;52.284;20.890;2022-12-18T13:32:19;25.90;;;17.50;;
76826;SDS011;65788;52.284;20.890;2022-12-18T13:37:59;28.90;;;18.10;;
76826;SDS011;65788;52.284;20.890;2022-12-18T13:51:50;24.70;;;16.40;;
76826;SDS011;65788;52.284;20.890;2022-12-18T13:54:28;23.80;;;17.10;;
76826;SDS011;65788;52.284;20.890;2022-12-18T13:57:03;26.50;;;17.80;;
76826;SDS011;65788;52.284;20.890;2022-12-18T13:59:35;25.90;;;17.30;;
76826;SDS011;65788;52.284;20.890;2022-12-18T14:02:44;23.80;;;16.80;;
76826;SDS011;65788;52.284;20.890;2022-12-18T14:05:20;27.30;;;17.30;;
76826;SDS011;65788;52.284;20.890;2022-12-18T14:07:54;25.40;;;18.40;;
76826;SDS011;65788;52.284;20.890;2022-12-18T14:10:24;25.40;;;17.40;;
76826;SDS011;65788;52.284;20.890;2022-12-18T14:12:54;24.80;;;17.00;;
76826;SDS011;65788;52.284;20.890;2022-12-18T14:18:26;24.80;;;17.20;;
76826;SDS011;65788;52.284;20.890;2022-12-18T14:20:59;25.30;;;18.30;;
76826;SDS011;65788;52.284;20.890;2022-12-18T14:28:59;25.00;;;17.10;;
76826;SDS011;65788;52.284;20.890;2022-12-18T14:31:31;24.80;;;17.60;;
76826;SDS011;65788;52.284;20.890;2022-12-18T14:34:01;25.90;;;17.30;;
76826;SDS011;65788;52.284;20.890;2022-12-18T14:36:30;26.40;;;17.10;;
76826;SDS011;65788;52.284;20.890;2022-12-18T14:39:00;26.40;;;17.00;;
76826;SDS011;65788;52.284;20.890;2022-12-18T14:41:29;25.10;;;16.60;;
76826;SDS011;65788;52.284;20.890;2022-12-18T14:44:05;26.40;;;17.70;;
76826;SDS011;65788;52.284;20.890;2022-12-18T14:46:40;25.10;;;16.70;;
76826;SDS011;65788;52.284;20.890;2022-12-18T14:49:34;23.50;;;17.80;;
76826;SDS011;65788;52.284;20.890;2022-12-18T14:52:06;27.20;;;18.00;;
76826;SDS011;65788;52.284;20.890;2022-12-18T14:54:51;24.60;;;17.70;;
76826;SDS011;65788;52.284;20.890;2022-12-18T14:57:25;24.50;;;17.20;;
76826;SDS011;65788;52.284;20.890;2022-12-18T15:00:07;24.60;;;17.70;;
76826;SDS011;65788;52.284;20.890;2022-12-18T15:02:57;24.50;;;18.10;;
76826;SDS011;65788;52.284;20.890;2022-12-18T15:05:30;25.20;;;17.90;;
76826;SDS011;65788;52.284;20.890;2022-12-18T15:08:02;25.10;;;17.70;;
76826;SDS011;65788;52.284;20.890;2022-12-18T15:10:33;23.90;;;17.20;;
76826;SDS011;65788;52.284;20.890;2022-12-18T15:25:45;22.50;;;17.20;;
76826;SDS011;65788;52.284;20.890;2022-12-18T15:28:21;24.80;;;17.50;;
76826;SDS011;65788;52.284;20.890;2022-12-18T15:31:03;22.70;;;16.70;;
76826;SDS011;65788;52.284;20.890;2022-12-18T15:33:39;24.30;;;17.30;;
76826;SDS011;65788;52.284;20.890;2022-12-18T15:36:11;22.10;;;16.70;;
76826;SDS011;65788;52.284;20.890;2022-12-18T15:38:46;22.50;;;16.40;;
76826;SDS011;65788;52.284;20.890;2022-12-18T15:41:17;23.30;;;17.10;;
76826;SDS011;65788;52.284;20.890;2022-12-18T15:43:51;22.80;;;17.30;;
76826;SDS011;65788;52.284;20.890;2022-12-18T15:46:22;25.30;;;17.40;;
76826;SDS011;65788;52.284;20.890;2022-12-18T15:48:54;22.90;;;16.90;;
76826;SDS011;65788;52.284;20.890;2022-12-18T15:51:31;23.60;;;16.90;;
76826;SDS011;65788;52.284;20.890;2022-12-18T15:54:04;23.20;;;17.90;;
76826;SDS011;65788;52.284;20.890;2022-12-18T15:56:40;24.10;;;17.10;;
76826;SDS011;65788;52.284;20.890;2022-12-18T15:59:28;21.50;;;16.90;;
76826;SDS011;65788;52.284;20.890;2022-12-18T16:01:58;22.10;;;16.90;;
76826;SDS011;65788;52.284;20.890;2022-12-18T16:04:28;22.60;;;16.50;;
76826;SDS011;65788;52.284;20.890;2022-12-18T16:06:58;23.20;;;16.50;;
76826;SDS011;65788;52.284;20.890;2022-12-18T16:09:27;23.20;;;16.60;;
76826;SDS011;65788;52.284;20.890;2022-12-18T16:11:57;21.80;;;16.90;;
76826;SDS011;65788;52.284;20.890;2022-12-18T16:14:29;20.70;;;16.20;;
76826;SDS011;65788;52.284;20.890;2022-12-18T16:17:03;22.70;;;16.40;;
76826;SDS011;65788;52.284;20.890;2022-12-18T16:19:38;23.00;;;16.80;;
76826;SDS011;65788;52.284;20.890;2022-12-18T16:22:14;24.40;;;17.00;;
76826;SDS011;65788;52.284;20.890;2022-12-18T16:24:50;24.00;;;17.80;;
76826;SDS011;65788;52.284;20.890;2022-12-18T16:27:21;22.70;;;16.60;;
76826;SDS011;65788;52.284;20.890;2022-12-18T16:29:52;23.10;;;16.60;;
76826;SDS011;65788;52.284;20.890;2022-12-18T16:32:21;23.40;;;16.80;;
76826;SDS011;65788;52.284;20.890;2022-12-18T16:34:51;25.90;;;16.90;;
76826;SDS011;65788;52.284;20.890;2022-12-18T16:37:20;26.10;;;17.30;;
76826;SDS011;65788;52.284;20.890;2022-12-18T16:39:50;25.20;;;17.70;;
76826;SDS011;65788;52.284;20.890;2022-12-18T16:42:19;26.10;;;17.10;;
76826;SDS011;65788;52.284;20.890;2022-12-18T16:44:52;25.40;;;17.40;;
76826;SDS011;65788;52.284;20.890;2022-12-18T16:47:22;25.00;;;17.60;;